createdAt,value
2022-09-10T00:01:17.226Z,5.18
2022-09-10T00:03:24.551Z,6.13
2022-09-10T00:05:28.915Z,6.20
2022-09-10T00:07:33.700Z,8.10
2022-09-10T00:09:40.592Z,10.57
2022-09-10T00:11:47.505Z,9.38
2022-09-10T00:13:53.832Z,8.98
2022-09-10T00:16:02.518Z,6.65
2022-09-10T00:18:07.213Z,7.18
2022-09-10T00:20:13.968Z,6.88
2022-09-10T00:22:19.080Z,5.55
2022-09-10T00:24:23.843Z,5.88
2022-09-10T00:26:29.941Z,5.80
2022-09-10T00:28:34.664Z,9.30
2022-09-10T00:30:47.655Z,6.28
2022-09-10T00:32:54.574Z,5.45
2022-09-10T00:35:01.057Z,7.68
2022-09-10T00:37:06.596Z,6.40
2022-09-10T00:39:14.119Z,6.45
2022-09-10T00:41:19.915Z,6.90
2022-09-10T00:43:24.579Z,8.07
2022-09-10T00:45:32.632Z,6.82
2022-09-10T00:47:42.486Z,6.85
2022-09-10T00:49:49.609Z,7.07
2022-09-10T00:51:54.372Z,6.55
2022-09-10T00:54:00.982Z,5.53
2022-09-10T00:56:06.345Z,6.88
2022-09-10T00:58:15.307Z,5.97
2022-09-10T01:00:20.901Z,5.93
2022-09-10T01:02:25.434Z,6.57
2022-09-10T01:04:32.354Z,7.40
2022-09-10T01:06:37.949Z,4.40
2022-09-10T01:08:42.747Z,7.30
2022-09-10T01:11:12.916Z,8.95
2022-09-10T01:13:50.388Z,6.03
2022-09-10T01:16:33.869Z,9.80
2022-09-10T01:18:58.696Z,6.50
2022-09-10T01:21:27.861Z,4.32
2022-09-10T01:24:02.874Z,4.43
2022-09-10T01:26:30.996Z,5.28
2022-09-10T01:29:03.870Z,4.95
2022-09-10T01:31:30.187Z,4.45
2022-09-10T01:33:38.861Z,3.40
2022-09-10T01:36:03.439Z,3.88
2022-09-10T01:38:15.524Z,4.07
2022-09-10T01:40:19.918Z,6.60
2022-09-10T01:42:29.884Z,6.28
2022-09-10T01:44:49.152Z,2.85
2022-09-10T01:47:01.361Z,3.85
2022-09-10T01:49:37.945Z,2.70
2022-09-10T01:52:12.579Z,2.88
2022-09-10T01:54:46.654Z,3.15
2022-09-10T01:57:15.275Z,4.47
2022-09-10T01:59:45.302Z,3.33
2022-09-10T02:01:53.248Z,4.75
2022-09-10T02:04:03.510Z,3.67
2022-09-10T02:06:10.504Z,68.25
2022-09-10T02:08:29.016Z,43.40
2022-09-10T02:10:35.654Z,9.93
2022-09-10T02:12:43.940Z,6.75
2022-09-10T02:15:00.482Z,8.05
2022-09-10T02:17:19.550Z,6.97
2022-09-10T02:19:23.924Z,8.80
2022-09-10T02:21:33.846Z,6.68
2022-09-10T02:23:57.280Z,3.50
2022-09-10T02:26:01.543Z,4.03
2022-09-10T02:28:06.807Z,3.65
2022-09-10T02:30:14.778Z,3.05
2022-09-10T02:32:19.104Z,3.42
2022-09-10T02:34:24.136Z,2.53
2022-09-10T02:36:34.969Z,6.80
2022-09-10T02:38:40.221Z,3.97
2022-09-10T02:40:49.194Z,5.38
2022-09-10T02:42:57.882Z,3.40
2022-09-10T02:45:02.945Z,4.30
2022-09-10T02:47:08.410Z,4.47
2022-09-10T02:49:17.279Z,6.38
2022-09-10T02:51:24.618Z,2.65
2022-09-10T02:53:28.914Z,4.25
2022-09-10T02:55:40.093Z,3.35
2022-09-10T02:57:44.811Z,4.50
2022-09-10T02:59:51.555Z,3.50
2022-09-10T03:01:56.717Z,4.32
2022-09-10T03:04:01.407Z,6.63
2022-09-10T03:06:08.182Z,4.28
2022-09-10T03:08:17.002Z,3.13
2022-09-10T03:10:24.777Z,3.47
2022-09-10T03:12:29.385Z,4.07
2022-09-10T03:14:36.925Z,3.40
2022-09-10T03:16:41.981Z,2.33
2022-09-10T03:18:46.555Z,2.67
2022-09-10T03:20:56.231Z,4.93
2022-09-10T03:23:00.459Z,3.42
2022-09-10T03:25:08.044Z,5.60
2022-09-10T03:27:19.573Z,3.90
2022-09-10T03:29:25.449Z,2.22
2022-09-10T03:31:30.214Z,3.35
2022-09-10T03:33:37.389Z,3.63
2022-09-10T03:35:42.089Z,4.07
2022-09-10T03:37:47.724Z,5.55
2022-09-10T03:39:56.359Z,4.05
2022-09-10T03:42:00.710Z,3.78
2022-09-10T03:44:06.656Z,4.63
2022-09-10T03:46:14.102Z,3.30
2022-09-10T03:48:21.566Z,3.58
2022-09-10T03:50:27.406Z,3.60
2022-09-10T03:52:31.963Z,2.95
2022-09-10T03:54:36.466Z,3.88
2022-09-10T03:56:41.176Z,4.65
2022-09-10T03:58:52.306Z,2.00
2022-09-10T04:00:58.808Z,2.70
2022-09-10T04:03:03.625Z,2.17
2022-09-10T04:05:09.449Z,2.20
2022-09-10T04:07:14.840Z,3.75
2022-09-10T04:09:19.589Z,3.67
2022-09-10T04:11:30.422Z,4.43
2022-09-10T04:13:35.787Z,5.25
2022-09-10T04:15:40.553Z,4.57
2022-09-10T04:17:50.087Z,2.92
2022-09-10T04:19:56.009Z,3.42
2022-09-10T04:22:01.023Z,3.22
2022-09-10T04:24:13.668Z,2.90
2022-09-10T04:26:20.938Z,2.58
2022-09-10T04:28:27.747Z,3.72
2022-09-10T04:30:36.614Z,4.70
2022-09-10T04:32:47.951Z,3.50
2022-09-10T04:34:52.670Z,4.55
2022-09-10T04:37:01.206Z,3.70
2022-09-10T04:39:06.068Z,2.83
2022-09-10T04:41:12.083Z,2.83
2022-09-10T04:43:22.089Z,2.45
2022-09-10T04:45:26.834Z,2.33
2022-09-10T04:47:32.534Z,2.63
2022-09-10T04:49:41.949Z,2.45
2022-09-10T04:51:47.169Z,1.67
2022-09-10T04:53:52.253Z,1.55
2022-09-10T04:56:04.080Z,2.80
2022-09-10T04:58:14.235Z,1.33
2022-09-10T05:00:21.730Z,1.75
2022-09-10T05:02:33.633Z,3.10
2022-09-10T05:04:38.720Z,2.03
2022-09-10T05:06:45.628Z,2.33
2022-09-10T05:08:55.137Z,2.17
2022-09-10T05:11:01.555Z,4.30
2022-09-10T05:13:07.702Z,4.55
2022-09-10T05:15:15.075Z,5.05
2022-09-10T05:17:19.314Z,4.55
2022-09-10T05:19:24.209Z,3.35
2022-09-10T05:21:41.816Z,1.77
2022-09-10T05:23:46.224Z,2.72
2022-09-10T05:25:51.323Z,2.05
2022-09-10T05:28:00.561Z,1.77
2022-09-10T05:30:05.967Z,2.00
2022-09-10T05:32:14.413Z,2.08
2022-09-10T05:34:23.578Z,3.35
2022-09-10T05:36:30.062Z,3.72
2022-09-10T05:38:38.112Z,1.70
2022-09-10T05:40:49.145Z,2.33
2022-09-10T05:42:54.417Z,2.67
2022-09-10T05:45:01.822Z,2.33
2022-09-10T05:47:11.581Z,3.10
2022-09-10T05:49:16.323Z,2.30
2022-09-10T05:51:21.428Z,2.03
2022-09-10T05:53:31.678Z,1.95
2022-09-10T05:55:36.256Z,3.55
2022-09-10T05:57:42.774Z,2.00
2022-09-10T05:59:55.454Z,2.22
2022-09-10T06:02:02.015Z,2.60
2022-09-10T06:04:09.271Z,3.28
2022-09-10T06:06:19.839Z,2.10
2022-09-10T06:08:32.625Z,1.92
2022-09-10T06:10:41.500Z,1.95
2022-09-10T06:12:52.002Z,2.13
2022-09-10T06:14:57.605Z,2.08
2022-09-10T06:17:02.325Z,2.17
2022-09-10T06:19:12.800Z,2.88
2022-09-10T06:21:18.917Z,2.47
2022-09-10T06:23:26.415Z,1.45
2022-09-10T06:25:35.589Z,1.50
2022-09-10T06:27:40.122Z,1.70
2022-09-10T06:29:45.225Z,2.53
2022-09-10T06:31:52.063Z,2.15
2022-09-10T06:33:56.417Z,1.63
2022-09-10T06:36:05.232Z,4.97
2022-09-10T06:38:10.348Z,2.70
2022-09-10T06:40:14.859Z,2.85
2022-09-10T06:42:20.608Z,2.58
2022-09-10T06:44:40.517Z,2.10
2022-09-10T06:49:20.038Z,3.08
2022-09-10T06:51:29.358Z,1.58
2022-09-10T06:53:34.710Z,1.65
2022-09-10T06:55:40.558Z,1.70
2022-09-10T06:57:48.967Z,2.67
2022-09-10T06:59:54.334Z,1.60
2022-09-10T07:01:59.400Z,1.70
2022-09-10T07:04:09.605Z,2.72
2022-09-10T07:06:18.022Z,2.40
2022-09-10T07:08:26.685Z,5.50
2022-09-10T07:10:37.143Z,2.47
2022-09-10T07:12:42.903Z,2.63
2022-09-10T07:14:47.959Z,2.45
2022-09-10T07:16:56.664Z,4.82
2022-09-10T07:19:04.554Z,2.20
2022-09-10T07:21:16.319Z,2.60
2022-09-10T07:23:25.870Z,2.83
2022-09-10T07:25:30.418Z,3.63
2022-09-10T07:27:41.388Z,3.17
2022-09-10T07:29:47.883Z,3.38
2022-09-10T07:31:56.063Z,2.67
2022-09-10T07:34:03.145Z,3.17
2022-09-10T07:36:13.122Z,3.25
2022-09-10T07:38:21.683Z,3.78
2022-09-10T07:40:28.759Z,2.35
2022-09-10T07:42:37.914Z,7.50
2022-09-10T07:44:42.502Z,5.47
2022-09-10T07:46:47.547Z,5.03
2022-09-10T07:49:03.021Z,3.53
2022-09-10T07:51:10.396Z,4.38
2022-09-10T07:53:15.196Z,3.63
2022-09-10T07:55:26.504Z,3.58
2022-09-10T07:57:32.603Z,5.30
2022-09-10T07:59:37.117Z,3.33
2022-09-10T08:01:46.404Z,5.35
2022-09-10T08:03:57.400Z,3.00
2022-09-10T08:06:03.951Z,3.88
2022-09-10T08:08:12.796Z,3.05
2022-09-10T08:10:17.625Z,2.45
2022-09-10T08:12:23.114Z,2.40
2022-09-10T08:14:33.204Z,3.53
2022-09-10T08:16:41.313Z,3.25
2022-09-10T08:18:50.759Z,3.83
2022-09-10T08:20:57.842Z,2.03
2022-09-10T08:23:04.389Z,4.25
2022-09-10T08:25:09.366Z,4.78
2022-09-10T08:27:19.196Z,2.80
2022-09-10T08:29:25.555Z,4.63
2022-09-10T08:31:30.960Z,3.97
2022-09-10T08:33:54.968Z,2.08
2022-09-10T08:36:00.861Z,0.88
2022-09-10T08:38:05.441Z,5.28
2022-09-10T08:40:16.647Z,2.10
2022-09-10T08:42:43.984Z,4.97
2022-09-10T08:44:57.355Z,5.18
2022-09-10T08:47:37.311Z,4.60
2022-09-10T08:49:53.589Z,2.03
2022-09-10T08:52:20.976Z,3.53
2022-09-10T08:54:34.182Z,3.55
2022-09-10T08:56:38.571Z,1.70
2022-09-10T08:59:04.286Z,3.03
2022-09-10T09:01:18.714Z,4.57
2022-09-10T09:03:37.061Z,4.35
2022-09-10T09:05:49.472Z,3.10
2022-09-10T09:07:56.365Z,3.47
2022-09-10T09:10:02.700Z,3.67
2022-09-10T09:12:32.193Z,3.38
2022-09-10T09:14:59.240Z,3.65
2022-09-10T09:17:37.740Z,3.92
2022-09-10T09:20:09.520Z,2.60
2022-09-10T09:22:39.785Z,3.47
2022-09-10T09:25:28.658Z,3.90
2022-09-10T09:27:36.349Z,5.28
2022-09-10T09:30:07.397Z,2.03
2022-09-10T09:32:17.241Z,4.93
2022-09-10T09:34:46.110Z,6.15
2022-09-10T09:36:55.511Z,6.30
2022-09-10T09:39:03.253Z,3.80
2022-09-10T09:41:36.542Z,4.07
2022-09-10T09:44:14.853Z,7.73
2022-09-10T09:46:20.847Z,4.82
2022-09-10T09:48:37.372Z,3.60
2022-09-10T09:50:44.532Z,2.90
2022-09-10T09:52:55.144Z,4.35
2022-09-10T09:55:14.917Z,7.05
2022-09-10T09:57:23.599Z,7.28
2022-09-10T09:59:31.055Z,4.03
2022-09-10T10:01:35.697Z,5.22
2022-09-10T10:04:02.121Z,5.00
2022-09-10T10:06:11.000Z,8.23
2022-09-10T10:08:29.938Z,6.03
2022-09-10T10:10:34.646Z,7.85
2022-09-10T10:12:39.039Z,10.93
2022-09-10T10:14:44.443Z,11.05
2022-09-10T10:17:00.375Z,9.95
2022-09-10T10:19:05.052Z,10.15
2022-09-10T10:21:17.439Z,9.32
2022-09-10T10:23:40.108Z,11.43
2022-09-10T10:25:46.625Z,8.15
2022-09-10T10:27:52.385Z,13.48
2022-09-10T10:30:26.053Z,4.20
2022-09-10T10:32:58.337Z,3.50
2022-09-10T10:35:34.742Z,4.35
2022-09-10T10:38:11.887Z,4.22
2022-09-10T10:40:46.531Z,6.13
2022-09-10T10:43:07.597Z,4.10
2022-09-10T10:45:43.848Z,8.60
2022-09-10T10:48:07.365Z,7.32
2022-09-10T10:52:48.765Z,9.55
2022-09-10T10:55:25.225Z,7.30
2022-09-10T10:58:08.698Z,9.80
2022-09-10T11:00:21.286Z,9.35
2022-09-10T11:02:52.825Z,9.95
2022-09-10T11:04:59.439Z,6.45
2022-09-10T11:07:09.429Z,8.05
2022-09-10T11:09:34.690Z,9.38
2022-09-10T11:12:03.689Z,5.55
2022-09-10T11:14:33.779Z,6.55
2022-09-10T11:16:45.004Z,5.72
2022-09-10T11:19:03.922Z,4.88
2022-09-10T11:21:30.889Z,4.57
2022-09-10T11:24:08.457Z,4.82
2022-09-10T11:26:37.420Z,5.97
2022-09-10T11:29:04.711Z,7.63
2022-09-10T11:31:17.868Z,5.43
2022-09-10T11:33:47.940Z,4.85
2022-09-10T11:36:05.546Z,7.22
2022-09-10T11:38:28.006Z,6.00
2022-09-10T11:40:45.466Z,5.95
2022-09-10T11:42:54.699Z,8.98
2022-09-10T11:45:07.032Z,8.05
2022-09-10T11:47:34.243Z,7.78
2022-09-10T11:50:02.715Z,5.60
2022-09-10T11:52:07.066Z,5.35
2022-09-10T11:54:17.568Z,7.03
2022-09-10T11:57:03.987Z,5.95
2022-09-10T11:59:45.161Z,5.63
2022-09-10T12:02:17.461Z,5.90
2022-09-10T12:04:47.537Z,8.43
2022-09-10T12:07:17.345Z,6.70
2022-09-10T12:09:36.738Z,7.72
2022-09-10T12:12:07.803Z,5.88
2022-09-10T12:14:17.913Z,10.52
2022-09-10T12:16:50.023Z,9.98
2022-09-10T12:18:55.527Z,6.43
2022-09-10T12:21:03.392Z,5.65
2022-09-10T12:23:08.463Z,8.75
2022-09-10T12:25:35.767Z,7.00
2022-09-10T12:27:55.889Z,9.70
2022-09-10T12:30:00.807Z,9.23
2022-09-10T12:32:29.658Z,9.35
2022-09-10T12:34:34.084Z,8.00
2022-09-10T12:37:16.832Z,7.45
2022-09-10T12:39:31.470Z,5.35
2022-09-10T12:41:56.414Z,10.55
2022-09-10T12:44:01.848Z,5.35
2022-09-10T12:46:19.669Z,4.72
2022-09-10T12:48:26.950Z,6.63
2022-09-10T12:50:34.053Z,9.05
2022-09-10T12:53:14.261Z,4.90
2022-09-10T12:55:44.032Z,6.00
2022-09-10T12:58:01.927Z,9.50
2022-09-10T13:00:26.894Z,5.22
2022-09-10T13:02:36.973Z,6.75
2022-09-10T13:04:43.105Z,4.93
2022-09-10T13:06:48.878Z,8.98
2022-09-10T13:08:56.400Z,6.65
2022-09-10T13:11:22.284Z,9.45
2022-09-10T13:13:46.756Z,8.02
2022-09-10T13:15:55.012Z,7.63
2022-09-10T13:18:27.020Z,9.32
2022-09-10T13:20:33.400Z,8.48
2022-09-10T13:23:14.088Z,6.82
2022-09-10T13:25:37.723Z,11.63
2022-09-10T13:27:42.720Z,7.68
2022-09-10T13:29:53.145Z,5.53
2022-09-10T13:32:03.108Z,6.82
2022-09-10T13:34:47.882Z,9.27
2022-09-10T13:37:24.334Z,7.72
2022-09-10T13:40:08.063Z,9.38
2022-09-10T13:42:37.902Z,10.02
2022-09-10T13:45:00.812Z,6.47
2022-09-10T13:47:15.264Z,8.63
2022-09-10T13:49:50.269Z,5.57
2022-09-10T13:51:56.061Z,6.30
2022-09-10T13:54:08.456Z,7.30
2022-09-10T13:56:21.067Z,8.77
2022-09-10T13:58:29.478Z,9.40
2022-09-10T14:00:54.393Z,5.68
2022-09-10T14:03:00.813Z,8.30
2022-09-10T14:05:05.439Z,8.43
2022-09-10T14:07:18.727Z,10.75
2022-09-10T14:09:25.379Z,6.57
2022-09-10T14:11:31.302Z,9.35
2022-09-10T14:14:00.783Z,7.40
2022-09-10T14:16:10.242Z,7.97
2022-09-10T14:18:15.019Z,7.25
2022-09-10T14:20:27.792Z,10.38
2022-09-10T14:22:35.190Z,11.20
2022-09-10T14:25:05.404Z,9.07
2022-09-10T14:27:31.997Z,12.90
2022-09-10T14:29:40.429Z,8.75
2022-09-10T14:31:45.236Z,7.68
2022-09-10T14:33:49.534Z,5.90
2022-09-10T14:35:58.613Z,5.10
2022-09-10T14:38:06.015Z,6.57
2022-09-10T14:40:22.002Z,6.72
2022-09-10T14:42:32.833Z,8.77
2022-09-10T14:44:43.967Z,7.38
2022-09-10T14:47:14.119Z,6.85
2022-09-10T14:49:22.419Z,5.65
2022-09-10T14:51:33.504Z,6.28
2022-09-10T14:53:38.510Z,4.00
2022-09-10T14:55:42.822Z,8.77
2022-09-10T14:57:47.169Z,4.63
2022-09-10T14:59:54.169Z,4.82
2022-09-10T15:02:04.158Z,7.88
2022-09-10T15:04:10.342Z,5.70
2022-09-10T15:06:14.979Z,5.97
2022-09-10T15:08:23.916Z,5.90
2022-09-10T15:10:28.431Z,8.52
2022-09-10T15:12:33.086Z,3.13
2022-09-10T15:14:41.209Z,3.28
2022-09-10T15:16:46.069Z,4.18
2022-09-10T15:18:51.273Z,6.90
2022-09-10T15:20:59.533Z,3.78
2022-09-10T15:23:04.349Z,7.53
2022-09-10T15:25:10.554Z,4.32
2022-09-10T15:27:20.093Z,4.50
2022-09-10T15:29:24.809Z,5.97
2022-09-10T15:31:32.755Z,4.75
2022-09-10T15:33:39.266Z,5.35
2022-09-10T15:35:44.640Z,4.72
2022-09-10T15:37:52.258Z,6.30
2022-09-10T15:40:00.580Z,7.95
2022-09-10T15:42:05.537Z,4.47
2022-09-10T15:44:12.491Z,6.72
2022-09-10T15:46:19.666Z,4.05
2022-09-10T15:48:24.257Z,2.97
2022-09-10T15:50:30.556Z,5.97
2022-09-10T15:52:39.873Z,3.88
2022-09-10T15:54:46.027Z,7.93
2022-09-10T15:56:52.453Z,6.97
2022-09-10T15:59:00.026Z,7.13
2022-09-10T16:01:13.696Z,3.25
2022-09-10T16:03:21.611Z,5.43
2022-09-10T16:05:28.074Z,7.57
2022-09-10T16:07:32.940Z,11.18
2022-09-10T16:09:39.361Z,6.18
2022-09-10T16:11:46.196Z,6.35
2022-09-10T16:13:51.812Z,4.30
2022-09-10T16:16:05.470Z,4.50
2022-09-10T16:18:12.181Z,7.25
2022-09-10T16:20:16.646Z,4.72
2022-09-10T16:22:23.106Z,3.70
2022-09-10T16:24:29.631Z,6.10
2022-09-10T16:26:36.391Z,5.93
2022-09-10T16:28:42.047Z,3.45
2022-09-10T16:30:49.415Z,4.07
2022-09-10T16:32:53.922Z,9.93
2022-09-10T16:35:01.423Z,8.25
2022-09-10T16:37:08.252Z,5.28
2022-09-10T16:39:14.322Z,4.25
2022-09-10T16:41:20.520Z,7.38
2022-09-10T16:43:25.239Z,8.15
2022-09-10T16:45:31.265Z,5.78
2022-09-10T16:47:39.045Z,6.25
2022-09-10T16:49:45.553Z,7.60
2022-09-10T16:51:53.129Z,8.57
2022-09-10T16:54:03.334Z,11.00
2022-09-10T16:56:13.908Z,9.95
2022-09-10T16:58:24.469Z,9.52
2022-09-10T17:00:30.991Z,9.52
2022-09-10T17:02:38.308Z,9.63
2022-09-10T17:04:42.652Z,10.27
2022-09-10T17:06:49.075Z,10.00
2022-09-10T17:08:58.235Z,10.48
2022-09-10T17:11:03.876Z,10.30
2022-09-10T17:13:12.249Z,8.60
2022-09-10T17:15:24.490Z,10.13
2022-09-10T17:17:30.793Z,8.32
2022-09-10T17:19:40.004Z,8.73
2022-09-10T17:21:46.440Z,10.13
2022-09-10T17:23:51.564Z,12.80
2022-09-10T17:25:58.436Z,9.18
2022-09-10T17:28:04.040Z,12.55
2022-09-10T17:30:11.044Z,14.48
2022-09-10T17:32:17.909Z,11.82
2022-09-10T17:34:25.453Z,11.82
2022-09-10T17:36:30.135Z,9.82
2022-09-10T17:38:36.634Z,10.75
2022-09-10T17:40:43.204Z,10.13
2022-09-10T17:42:49.347Z,10.88
2022-09-10T17:44:56.190Z,12.43
2022-09-10T17:47:01.896Z,9.07
2022-09-10T17:49:08.202Z,8.93
2022-09-10T17:51:22.197Z,8.07
2022-09-10T17:55:35.490Z,9.07
2022-09-10T17:57:41.738Z,7.68
2022-09-10T17:59:49.187Z,8.95
2022-09-10T18:01:53.796Z,10.30
2022-09-10T18:04:00.333Z,10.98
2022-09-10T18:06:08.516Z,9.40
2022-09-10T18:08:13.188Z,9.38
2022-09-10T18:10:19.572Z,5.82
2022-09-10T18:12:26.411Z,6.90
2022-09-10T18:14:31.229Z,6.80
2022-09-10T18:16:40.705Z,7.90
2022-09-10T18:19:14.064Z,5.32
2022-09-10T18:21:26.203Z,5.63
2022-09-10T18:23:32.533Z,7.80
2022-09-10T18:25:39.155Z,8.00
2022-09-10T18:27:44.324Z,9.70
2022-09-10T18:29:50.644Z,5.22
2022-09-10T18:31:59.597Z,9.35
2022-09-10T18:34:04.073Z,5.32
2022-09-10T18:36:18.072Z,6.57
2022-09-10T18:38:22.503Z,5.03
2022-09-10T18:40:27.003Z,6.72
2022-09-10T18:42:33.574Z,4.18
2022-09-10T18:44:40.277Z,6.50
2022-09-10T18:46:45.811Z,5.20
2022-09-10T18:48:52.583Z,5.82
2022-09-10T18:50:59.334Z,6.75
2022-09-10T18:53:03.507Z,4.88
2022-09-10T18:55:10.130Z,6.15
2022-09-10T18:57:16.526Z,6.05
2022-09-10T18:59:22.702Z,6.68
2022-09-10T19:01:35.622Z,7.53
2022-09-10T19:03:51.335Z,6.53
2022-09-10T19:05:55.912Z,6.68
2022-09-10T19:08:02.261Z,4.63
2022-09-10T19:10:10.124Z,4.57
2022-09-10T19:12:19.020Z,7.97
2022-09-10T19:14:27.800Z,4.97
2022-09-10T19:16:34.835Z,6.13
2022-09-10T19:18:39.470Z,11.27
2022-09-10T19:20:47.710Z,6.55
2022-09-10T19:22:54.467Z,9.20
2022-09-10T19:24:58.796Z,9.00
2022-09-10T19:27:05.292Z,7.18
2022-09-10T19:29:11.627Z,8.60
2022-09-10T19:31:17.865Z,9.27
2022-09-10T19:33:24.206Z,13.02
2022-09-10T19:35:30.741Z,8.05
2022-09-10T19:37:35.102Z,9.68
2022-09-10T19:39:41.896Z,10.32
2022-09-10T19:41:51.336Z,13.70
2022-09-10T19:43:57.304Z,9.05
2022-09-10T19:46:05.184Z,18.83
2022-09-10T19:48:12.544Z,14.27
2022-09-10T19:50:20.305Z,17.75
2022-09-10T19:52:29.183Z,18.48
2022-09-10T19:54:36.149Z,21.60
2022-09-10T19:56:42.464Z,23.00
2022-09-10T19:58:47.154Z,23.70
2022-09-10T20:00:51.913Z,26.73
2022-09-10T20:02:56.215Z,21.92
2022-09-10T20:05:03.436Z,23.25
2022-09-10T20:07:09.880Z,23.08
2022-09-10T20:09:14.473Z,21.20
2022-09-10T20:11:25.021Z,18.55
2022-09-10T20:13:31.583Z,14.32
2022-09-10T20:15:43.586Z,13.00
2022-09-10T20:17:52.520Z,10.20
2022-09-10T20:19:59.437Z,11.88
2022-09-10T20:22:06.609Z,11.18
2022-09-10T20:24:13.095Z,12.15
2022-09-10T20:26:23.592Z,9.43
2022-09-10T20:28:27.932Z,12.45
2022-09-10T20:30:35.033Z,9.48
2022-09-10T20:32:40.813Z,9.10
2022-09-10T20:34:45.468Z,11.18
2022-09-10T20:36:54.957Z,7.00
2022-09-10T20:39:02.338Z,8.43
2022-09-10T20:41:07.169Z,8.88
2022-09-10T20:43:13.945Z,12.38
2022-09-10T20:45:21.308Z,7.13
2022-09-10T20:47:28.919Z,9.73
2022-09-10T20:49:35.556Z,10.23
2022-09-10T20:51:41.615Z,9.00
2022-09-10T20:53:46.328Z,13.18
2022-09-10T20:55:51.163Z,10.63
2022-09-10T20:57:56.809Z,9.60
2022-09-10T21:00:01.294Z,10.40
2022-09-10T21:02:09.436Z,12.43
2022-09-10T21:04:16.978Z,7.13
2022-09-10T21:06:22.575Z,7.95
2022-09-10T21:08:32.358Z,9.38
2022-09-10T21:10:40.549Z,9.45
2022-09-10T21:12:45.345Z,8.30
2022-09-10T21:14:51.736Z,7.05
2022-09-10T21:16:58.148Z,8.52
2022-09-10T21:19:04.266Z,8.15
2022-09-10T21:21:13.116Z,5.80
2022-09-10T21:23:22.572Z,6.53
2022-09-10T21:25:29.091Z,5.47
2022-09-10T21:27:35.587Z,9.82
2022-09-10T21:29:42.138Z,5.55
2022-09-10T21:31:47.728Z,6.80
2022-09-10T21:33:52.166Z,4.95
2022-09-10T21:36:10.634Z,6.63
2022-09-10T21:38:15.293Z,5.82
2022-09-10T21:40:21.627Z,6.60
2022-09-10T21:42:26.296Z,4.93
2022-09-10T21:44:30.595Z,5.53
2022-09-10T21:46:37.260Z,5.85
2022-09-10T21:48:44.384Z,3.65
2022-09-10T21:51:01.346Z,6.18
2022-09-10T21:53:07.612Z,6.38
2022-09-10T21:55:12.345Z,6.55
2022-09-10T21:57:16.690Z,7.28
2022-09-10T21:59:23.934Z,4.25
2022-09-10T22:01:32.118Z,5.28
2022-09-10T22:03:37.200Z,4.93
2022-09-10T22:05:44.018Z,6.40
2022-09-10T22:07:48.789Z,6.95
2022-09-10T22:09:53.070Z,8.77
2022-09-10T22:12:00.244Z,5.68
2022-09-10T22:14:18.467Z,4.97
2022-09-10T22:16:23.754Z,4.97
2022-09-10T22:18:30.639Z,4.45
2022-09-10T22:20:35.833Z,5.88
2022-09-10T22:22:40.476Z,6.07
2022-09-10T22:24:46.671Z,4.45
2022-09-10T22:26:51.156Z,3.72
2022-09-10T22:28:57.145Z,2.95
2022-09-10T22:31:18.092Z,2.30
2022-09-10T22:33:24.641Z,3.03
2022-09-10T22:35:28.985Z,4.75
2022-09-10T22:37:36.678Z,2.60
2022-09-10T22:39:41.659Z,3.00
2022-09-10T22:41:50.567Z,3.88
2022-09-10T22:43:58.509Z,4.10
2022-09-10T22:46:15.922Z,4.07
2022-09-10T22:48:20.496Z,3.58
2022-09-10T22:50:27.955Z,3.17
2022-09-10T22:52:37.453Z,4.43
2022-09-10T22:54:41.975Z,7.97
2022-09-10T22:56:48.198Z,4.40
2022-09-10T22:58:55.482Z,3.83
2022-09-10T23:01:05.398Z,4.22
2022-09-10T23:03:12.578Z,7.50
2022-09-10T23:05:19.807Z,8.25
2022-09-10T23:07:24.716Z,8.00
2022-09-10T23:09:31.279Z,10.55
2022-09-10T23:11:37.986Z,6.60
2022-09-10T23:13:42.952Z,6.28
2022-09-10T23:15:51.471Z,5.20
2022-09-10T23:17:58.916Z,4.38
2022-09-10T23:20:13.390Z,6.38
2022-09-10T23:22:25.940Z,6.13
2022-09-10T23:24:31.880Z,3.10
2022-09-10T23:26:36.289Z,5.20
2022-09-10T23:28:45.801Z,5.30
2022-09-10T23:30:50.284Z,4.72
2022-09-10T23:32:56.783Z,3.95
2022-09-10T23:35:03.761Z,5.53
2022-09-10T23:37:15.717Z,2.63
2022-09-10T23:39:27.239Z,3.83
2022-09-10T23:41:33.809Z,4.90
2022-09-10T23:43:39.941Z,4.57
2022-09-10T23:45:48.481Z,4.60
2022-09-10T23:47:59.686Z,4.53
2022-09-10T23:50:11.044Z,3.95
2022-09-10T23:52:16.378Z,2.72
2022-09-10T23:54:22.652Z,3.15
2022-09-10T23:56:31.667Z,6.20
2022-09-10T23:58:36.495Z,3.42
